Latest Weather Observations for Coonabarabran Airport

IDN60801

Issued at 2:35 pm EST Monday 21 April 2014 (issued every 30 minutes, with the page automatically refreshed every 10 minutes)

About weather observations | Map of weather stations | Latest weather observations for NSW | Other Formats
Station Details ID: 064017 Name: COONABARABRAN AIRPORT AWS Lat: -31.33 Lon: 149.27 Height: 645.0 m
Data from the previous 72 hours. | See also: Recent months for locations in New South Wales
Date/Time
EST
Temp
°C
App
Temp
°C
Dew
Point
Rel
Hum
%
Delta-T
°C
Wind Press
QNH
hPa
Press
MSL
hPa
Rain
since 9 am
mm
Dir
 
Spd
km/h
Gust
km/h
Spd
kts
Gust
kts
21/02:30pm 19.0 16.8 6.1 43 6.6 E 7 13 4 7 1019.9 - 0.0
21/02:00pm 18.6 16.2 5.1 41 6.7 SSW 7 13 4 7 1020.0 1018.0 0.0
21/01:30pm 18.5 16.2 5.7 43 6.5 S 7 13 4 7 1020.2 - 0.0
21/01:00pm 17.7 14.8 4.6 42 6.4 S 9 15 5 8 1020.5 1018.5 0.0
21/12:30pm 17.8 15.6 6.0 46 6.0 SW 7 13 4 7 1021.1 - 0.0
21/12:00pm 16.5 13.6 4.9 46 5.7 SE 9 17 5 9 1021.6 1019.6 0.0
21/11:30am 16.2 13.4 5.2 48 5.4 S 9 15 5 8 1022.2 - 0.0
21/11:00am 15.4 12.6 5.3 51 4.9 SW 9 15 5 8 1022.6 1020.5 0.0
21/10:30am 15.1 11.9 5.0 51 4.9 S 11 17 6 9 1022.7 - 0.0
21/10:00am 14.2 11.2 4.2 51 4.7 S 9 15 5 8 1022.8 1020.8 0.0
21/09:30am 13.5 10.9 4.4 54 4.3 SSE 7 15 4 8 1022.9 - 0.0
21/09:00am 13.1 10.2 4.8 57 4.0 ESE 9 15 5 8 1022.7 1020.7 0.0
21/08:30am 12.4 9.5 4.9 60 3.6 ESE 9 13 5 7 1022.6 - 0.0
21/08:00am 11.5 8.8 5.4 66 2.9 SE 9 20 5 11 1022.1 1020.1 0.0
21/07:30am 10.3 7.4 4.7 68 2.6 SSE 9 17 5 9 1021.7 - 0.0
21/07:00am 8.8 5.8 4.0 72 2.2 S 9 11 5 6 1021.4 1019.4 0.0
21/06:30am 8.4 4.9 3.7 72 2.1 S 11 11 6 6 1021.0 - 0.0
21/06:00am 8.1 4.6 3.6 73 2.0 SSW 11 11 6 6 1020.9 1018.8 0.0
21/05:30am 7.9 4.4 3.6 74 1.9 SSW 11 13 6 7 1020.5 - 0.0
21/05:00am 8.0 4.5 3.5 73 2.0 SSW 11 13 6 7 1020.3 1018.3 0.0
21/04:30am 8.1 4.5 3.2 71 2.2 SSW 11 13 6 7 1020.2 - 0.0
21/04:00am 8.6 5.4 3.2 69 2.4 SSW 9 13 5 7 1019.9 1017.8 0.0
21/03:30am 8.8 5.6 3.2 68 2.5 SSW 9 13 5 7 1019.7 - 0.0
21/03:00am 8.7 5.1 2.9 67 2.6 SSW 11 11 6 6 1019.7 1017.6 0.0
21/02:30am 8.9 5.3 3.1 67 2.6 SSW 11 13 6 7 1019.9 - 0.0
21/02:00am 9.2 6.1 3.4 67 2.6 SSW 9 13 5 7 1020.1 1018.1 0.0
21/01:30am 9.3 5.8 3.3 66 2.7 SW 11 13 6 7 1020.1 - 0.0
21/01:00am 9.6 5.7 3.4 65 2.8 SW 13 15 7 8 1020.2 1018.2 0.0
21/12:30am 9.8 5.9 3.3 64 2.9 SW 13 17 7 9 1020.2 - 0.0
21/12:00am 9.8 5.9 3.3 64 2.9 SW 13 15 7 8 1020.3 1018.3 0.0
 
Date/Time
EST
Temp
°C
App
Temp
°C
Dew
Point
Rel
Hum
%
Delta-T
°C
Wind Press
QNH
hPa
Press
MSL
hPa
Rain
since 9 am
mm
Dir
 
Spd
km/h
Gust
km/h
Spd
kts
Gust
kts
20/11:30pm 10.0 5.7 3.3 63 3.0 SW 15 19 8 10 1020.4 - 0.0
20/11:00pm 10.5 6.2 3.3 61 3.3 SW 15 20 8 11 1020.4 1018.4 0.0
20/10:30pm 10.9 7.0 3.2 59 3.5 SW 13 17 7 9 1020.5 - 0.0
20/10:00pm 10.9 7.0 3.2 59 3.5 SW 13 19 7 10 1020.4 1018.4 0.0
20/09:30pm 11.1 6.8 3.2 58 3.6 SW 15 19 8 10 1020.5 - 0.0
20/09:00pm 11.3 7.0 3.1 57 3.7 SW 15 17 8 9 1020.2 1018.2 0.0
20/08:30pm 12.0 7.7 3.0 54 4.1 WSW 15 17 8 9 1020.2 - 0.0
20/08:00pm 12.3 8.0 3.0 53 4.2 WSW 15 20 8 11 1020.1 1018.1 0.0
20/07:30pm 11.4 7.4 2.9 56 3.8 SW 13 15 7 8 1019.7 - 0.0
20/07:00pm 12.6 8.6 3.0 52 4.4 WSW 13 15 7 8 1019.3 1017.2 0.0
20/06:30pm 12.8 8.9 3.2 52 4.4 SW 13 17 7 9 1019.0 - 0.0
20/06:00pm 12.9 9.0 3.3 52 4.4 SW 13 15 7 8 1018.8 1016.8 0.0
20/05:30pm 14.2 10.2 3.1 47 5.2 SW 13 15 7 8 1018.4 - 0.0
20/05:00pm 16.0 12.0 3.1 42 6.1 SSW 13 15 7 8 1018.2 1016.1 0.0
20/04:30pm 17.0 12.2 2.6 38 6.8 SW 17 20 9 11 1018.2 - 0.0
20/04:00pm 17.9 13.0 4.1 40 6.7 SW 19 22 10 12 1018.0 1015.9 0.0
20/03:30pm 18.6 14.4 3.6 37 7.3 SW 15 20 8 11 1017.9 - 0.0
20/03:00pm 18.7 14.0 3.3 36 7.4 WSW 17 20 9 11 1017.9 1015.8 0.0
20/02:30pm 19.2 14.6 3.8 36 7.5 WSW 17 24 9 13 1017.8 - 0.0
20/02:00pm 19.0 15.1 3.2 35 7.6 SW 13 20 7 11 1017.7 1015.6 0.0
20/01:30pm 19.1 15.6 3.7 36 7.5 SSW 11 15 6 8 1017.9 - 0.0
20/01:00pm 18.9 15.4 3.5 36 7.5 S 11 15 6 8 1018.1 1016.0 0.0
20/12:30pm 18.4 15.3 3.5 37 7.2 S 9 15 5 8 1018.5 - 0.0
20/12:00pm 17.9 14.6 2.6 36 7.2 SSW 9 15 5 8 1018.9 1016.9 0.0
20/11:30am 17.1 13.9 3.1 39 6.7 S 9 15 5 8 1019.3 - 0.0
20/11:00am 16.2 13.3 4.6 46 5.6 SSE 9 13 5 7 1019.6 1017.5 0.0
20/10:30am 15.8 13.3 4.5 47 5.5 SSW 7 15 4 8 1019.7 - 0.0
20/10:00am 14.9 12.7 6.0 55 4.4 S 7 15 4 8 1019.7 1017.6 0.0
20/09:30am 13.7 11.5 6.1 60 3.8 S 7 13 4 7 1019.7 - 0.0
20/09:00am 12.5 10.1 5.4 62 3.4 S 7 15 4 8 1019.6 1017.5 0.0
20/08:30am 11.5 9.1 5.4 66 2.9 S 7 15 4 8 1019.3 - 0.0
20/08:00am 11.1 8.7 5.4 68 2.7 WSW 7 15 4 8 1018.9 1016.9 0.0
20/07:30am 10.1 7.9 6.3 77 1.8 SW 7 20 4 11 1018.3 - 0.0
20/07:00am 9.1 6.6 4.5 73 2.1 SSW 7 13 4 7 1018.0 1015.9 0.0
20/06:30am 8.6 6.0 4.2 74 2.0 SW 7 11 4 6 1017.9 - 0.0
20/06:00am 8.9 5.9 4.3 73 2.1 SW 9 17 5 9 1017.9 1015.8 0.0
20/05:30am 8.7 5.8 4.5 75 1.9 WSW 9 11 5 6 1017.7 - 0.0
20/05:00am 8.2 4.8 3.9 74 1.9 WSW 11 11 6 6 1017.3 1015.3 0.0
20/04:30am 8.3 5.3 3.9 74 2.0 WSW 9 11 5 6 1017.2 - 0.0
20/04:00am 8.6 5.6 4.2 74 2.0 SW 9 13 5 7 1017.3 1015.3 0.0
20/03:30am 7.7 4.6 3.6 75 1.8 W 9 15 5 8 1017.3 - 0.0
20/03:00am 7.8 4.3 3.3 73 2.0 SSW 11 13 6 7 1017.1 1015.0 0.0
20/02:30am 8.3 4.8 3.6 72 2.1 SSW 11 15 6 8 1017.5 - 0.0
20/02:00am 8.0 4.4 2.9 70 2.2 SSW 11 13 6 7 1017.6 1015.5 0.0
20/01:30am 8.3 4.7 3.0 69 2.3 SSW 11 13 6 7 1017.9 - 0.0
20/01:00am 8.8 5.2 2.8 66 2.6 SSW 11 15 6 8 1018.0 1015.9 0.0
20/12:30am 8.8 5.1 2.6 65 2.7 SSW 11 13 6 7 1017.9 - 0.0
20/12:00am 9.2 5.5 2.5 63 2.9 SSW 11 15 6 8 1017.9 1015.8 0.0
 
Date/Time
EST
Temp
°C
App
Temp
°C
Dew
Point
Rel
Hum
%
Delta-T
°C
Wind Press
QNH
hPa
Press
MSL
hPa
Rain
since 9 am
mm
Dir
 
Spd
km/h
Gust
km/h
Spd
kts
Gust
kts
19/11:30pm 9.5 5.9 2.8 63 3.0 SW 11 15 6 8 1018.3 - 0.0
19/11:00pm 9.9 5.9 2.7 61 3.2 SSW 13 19 7 10 1018.5 1016.4 0.0
19/10:30pm 9.3 6.0 2.4 62 3.0 SSW 9 15 5 8 1018.7 - 0.0
19/10:00pm 10.4 6.7 2.5 58 3.5 SW 11 17 6 9 1019.0 1017.0 0.0
19/09:30pm 10.3 6.3 2.7 59 3.4 SW 13 15 7 8 1019.0 - 0.0
19/09:00pm 10.7 6.6 2.5 57 3.6 SW 13 15 7 8 1018.9 1016.9 0.0
19/08:30pm 10.8 7.5 2.6 57 3.7 W 9 17 5 9 1018.9 - 0.0
19/08:00pm 11.3 7.8 3.3 58 3.6 SW 11 15 6 8 1018.9 1016.9 0.0
19/07:30pm 11.5 7.7 3.8 59 3.6 SW 13 19 7 10 1018.7 - 0.0
19/07:00pm 12.7 8.2 4.4 57 3.9 SW 17 20 9 11 1018.3 1016.2 0.0
19/06:30pm 13.1 9.9 5.0 58 3.9 SW 11 17 6 9 1018.0 - 0.0
19/06:00pm 14.2 10.8 5.8 57 4.1 SW 13 17 7 9 1017.5 1015.4 0.0
19/05:30pm 15.3 11.3 6.6 56 4.4 SW 17 24 9 13 1016.9 - 0.0
19/05:00pm 16.6 12.7 7.3 54 4.8 SW 17 20 9 11 1016.8 1014.7 0.0
19/04:30pm 17.6 13.2 7.4 51 5.3 SW 20 28 11 15 1016.7 - 0.0
19/04:00pm 18.4 14.4 8.4 52 5.3 SW 19 28 10 15 1016.5 1014.4 0.0
19/03:30pm 19.0 14.5 8.6 51 5.6 SW 22 32 12 17 1016.6 - 0.0
19/03:00pm 19.9 16.6 9.5 51 5.7 WSW 17 22 9 12 1016.6 1014.5 0.0
19/02:30pm 20.0 16.1 9.3 50 5.9 WSW 20 30 11 16 1016.5 - 0.0
19/02:00pm 20.7 17.4 9.6 49 6.1 SW 17 26 9 14 1016.5 1014.4 0.0
19/01:30pm 20.9 17.0 9.5 48 6.3 W 20 32 11 17 1016.7 - 0.0
19/01:00pm 21.3 17.1 8.2 43 7.1 W 20 30 11 16 1017.0 1014.9 0.0
19/12:30pm 20.4 18.0 10.2 52 5.7 SW 13 22 7 12 1017.7 - 0.0
19/12:00pm 20.6 18.7 9.2 48 6.2 W 9 20 5 11 1018.2 1016.1 0.0
19/11:30am 18.6 16.8 9.4 55 5.0 SSW 9 17 5 9 1018.5 - 0.0
19/11:00am 18.1 17.4 10.2 60 4.3 SSE 4 13 2 7 1018.9 1016.9 0.0
19/10:30am 18.0 17.3 9.9 59 4.4 NNE 4 13 2 7 1019.0 - 0.0
19/10:00am 17.3 15.8 9.0 58 4.4 SSE 7 13 4 7 1019.3 1017.2 0.0
19/09:30am 17.4 16.1 9.8 61 4.1 SSW 7 13 4 7 1019.4 - 0.0
19/09:00am 16.3 14.4 9.0 62 3.9 S 9 13 5 7 1019.5 1017.4 0.0
19/08:30am 16.0 14.0 8.7 62 3.9 SSW 9 13 5 7 1019.3 - 0.0
19/08:00am 15.2 13.1 8.2 63 3.6 SW 9 13 5 7 1019.0 1017.0 0.0
19/07:30am 14.3 11.8 8.0 66 3.2 WSW 11 15 6 8 1018.8 - 0.0
19/07:00am 13.9 11.3 7.7 66 3.2 SW 11 13 6 7 1018.6 1016.6 0.0
19/06:30am 13.9 11.2 7.4 65 3.3 WSW 11 13 6 7 1018.4 - 0.0
19/06:00am 13.6 10.9 7.2 65 3.2 WSW 11 13 6 7 1018.2 1016.1 0.0
19/05:30am 13.8 11.4 6.9 63 3.5 WNW 9 19 5 10 1018.0 - 0.0
19/05:00am 13.0 10.2 6.8 66 3.1 W 11 13 6 7 1017.9 1015.8 0.0
19/04:30am 12.9 9.7 6.9 67 3.0 W 13 17 7 9 1017.7 - 0.0
19/04:00am 14.0 11.5 6.6 61 3.7 WSW 9 13 5 7 1017.6 1015.5 0.0
19/03:30am 14.5 12.0 6.6 59 4.0 W 9 19 5 10 1017.5 - 0.0
19/03:00am 14.5 12.1 6.8 60 3.9 WNW 9 15 5 8 1017.6 1015.5 0.0
19/02:30am 14.7 12.2 6.5 58 4.1 W 9 11 5 6 1017.7 - 0.0
19/02:00am 14.0 11.8 6.4 60 3.8 NNW 7 19 4 10 1017.8 1015.7 0.0
19/01:30am 14.0 11.5 6.4 60 3.8 NW 9 17 5 9 1017.9 - 0.0
19/01:00am 14.3 11.8 6.4 59 3.9 NW 9 15 5 8 1018.1 1016.0 0.0
19/12:30am 14.0 11.5 6.6 61 3.7 NW 9 17 5 9 1018.3 - 0.0
19/12:00am 14.0 11.5 6.6 61 3.7 WNW 9 15 5 8 1018.4 1016.3 0.0
 
Date/Time
EST
Temp
°C
App
Temp
°C
Dew
Point
Rel
Hum
%
Delta-T
°C
Wind Press
QNH
hPa
Press
MSL
hPa
Rain
since 9 am
mm
Dir
 
Spd
km/h
Gust
km/h
Spd
kts
Gust
kts
18/11:30pm 14.1 11.7 7.2 63 3.5 W 9 11 5 6 1018.4 - 0.0
18/11:00pm 13.7 11.3 6.8 63 3.5 W 9 13 5 7 1018.5 1016.4 0.0
18/10:30pm 14.1 11.4 7.2 63 3.5 W 11 15 6 8 1018.7 - 0.0
18/10:00pm 13.8 10.7 7.1 64 3.4 W 13 15 7 8 1018.7 1016.7 0.0
18/09:30pm 13.9 11.2 7.2 64 3.4 W 11 13 6 7 1018.7 - 0.0
18/09:00pm 14.4 11.7 7.2 62 3.6 W 11 13 6 7 1018.6 1016.6 0.0
18/08:30pm 14.2 11.8 6.8 61 3.7 W 9 11 5 6 1018.5 - 0.0
18/08:00pm 14.4 12.0 7.0 61 3.7 W 9 11 5 6 1018.4 1016.3 0.0
18/07:30pm 14.8 12.1 7.4 61 3.8 WSW 11 15 6 8 1018.4 - 0.0
18/07:00pm 14.9 12.6 7.5 61 3.8 WSW 9 11 5 6 1018.2 1016.1 0.0
18/06:30pm 15.3 13.0 7.3 59 4.1 WSW 9 13 5 7 1017.9 - 0.0
18/06:00pm 15.9 13.6 7.4 57 4.4 SW 9 11 5 6 1017.6 1015.5 0.0
18/05:30pm 16.9 14.2 7.3 53 5.0 SW 11 17 6 9 1017.7 - 0.0
18/05:00pm 18.3 14.8 7.4 49 5.7 SW 15 20 8 11 1017.5 1015.4 0.0
18/04:30pm 19.5 15.3 7.3 45 6.4 WSW 19 32 10 17 1017.2 - 0.0
18/04:00pm 20.0 15.5 7.1 43 6.8 WSW 20 32 11 17 1017.1 1015.0 0.0
18/03:30pm 20.4 16.0 7.4 43 6.9 WSW 20 30 11 16 1017.0 - 0.0
18/03:00pm 20.7 16.7 8.4 45 6.6 WSW 19 24 10 13 1016.9 1014.8 0.0

Other Formats:

Comma delimited format used in spreadsheet applications
http://www.bom.gov.au/fwo/IDN60801/IDN60801.95728.axf

JavaScript Object Notation format (JSON) in row-major order
http://www.bom.gov.au/fwo/IDN60801/IDN60801.95728.json